sensor_id;sensor_type;location;lat;lon;timestamp;P1;durP1;ratioP1;P2;durP2;ratioP2
9940;SDS011;5009;50.656;7.188;2023-08-07T03:46:21;17.27;;;14.23;;
9940;SDS011;5009;50.656;7.188;2023-08-07T03:48:47;12.67;;;11.17;;
9940;SDS011;5009;50.656;7.188;2023-08-07T03:51:12;15.83;;;9.67;;
9940;SDS011;5009;50.656;7.188;2023-08-07T03:53:39;10.57;;;7.90;;
9940;SDS011;5009;50.656;7.188;2023-08-07T03:56:05;7.80;;;7.00;;
9940;SDS011;5009;50.656;7.188;2023-08-07T03:58:31;8.63;;;6.00;;
9940;SDS011;5009;50.656;7.188;2023-08-07T04:00:56;8.57;;;5.77;;
9940;SDS011;5009;50.656;7.188;2023-08-07T04:03:22;9.90;;;6.03;;
9940;SDS011;5009;50.656;7.188;2023-08-07T04:05:51;11.87;;;6.93;;
9940;SDS011;5009;50.656;7.188;2023-08-07T04:08:18;13.40;;;6.93;;
9940;SDS011;5009;50.656;7.188;2023-08-07T04:10:44;9.10;;;6.57;;
9940;SDS011;5009;50.656;7.188;2023-08-07T04:13:09;12.17;;;7.30;;
9940;SDS011;5009;50.656;7.188;2023-08-07T04:15:35;12.40;;;8.20;;
9940;SDS011;5009;50.656;7.188;2023-08-07T04:18:01;11.07;;;8.03;;
9940;SDS011;5009;50.656;7.188;2023-08-07T04:20:26;14.90;;;8.37;;
9940;SDS011;5009;50.656;7.188;2023-08-07T04:22:52;14.30;;;9.30;;
9940;SDS011;5009;50.656;7.188;2023-08-07T04:25:18;12.97;;;7.80;;
9940;SDS011;5009;50.656;7.188;2023-08-07T04:27:43;8.80;;;7.77;;
9940;SDS011;5009;50.656;7.188;2023-08-07T04:30:09;15.80;;;7.87;;
9940;SDS011;5009;50.656;7.188;2023-08-07T04:32:35;9.57;;;6.50;;
9940;SDS011;5009;50.656;7.188;2023-08-07T04:35:01;7.13;;;5.40;;
9940;SDS011;5009;50.656;7.188;2023-08-07T04:37:26;7.50;;;4.93;;
9940;SDS011;5009;50.656;7.188;2023-08-07T04:39:52;7.50;;;5.30;;
9940;SDS011;5009;50.656;7.188;2023-08-07T04:42:19;14.00;;;5.73;;
9940;SDS011;5009;50.656;7.188;2023-08-07T04:44:45;10.40;;;6.57;;
9940;SDS011;5009;50.656;7.188;2023-08-07T04:47:10;10.07;;;6.53;;
9940;SDS011;5009;50.656;7.188;2023-08-07T04:49:36;9.90;;;7.57;;
9940;SDS011;5009;50.656;7.188;2023-08-07T04:52:01;9.43;;;7.27;;
9940;SDS011;5009;50.656;7.188;2023-08-07T04:54:27;12.10;;;6.97;;
9940;SDS011;5009;50.656;7.188;2023-08-07T04:56:52;11.70;;;5.73;;
9940;SDS011;5009;50.656;7.188;2023-08-07T04:59:18;10.83;;;5.27;;
9940;SDS011;5009;50.656;7.188;2023-08-07T05:01:44;9.07;;;5.13;;
9940;SDS011;5009;50.656;7.188;2023-08-07T05:04:09;9.73;;;5.10;;
9940;SDS011;5009;50.656;7.188;2023-08-07T05:06:35;6.90;;;4.10;;
9940;SDS011;5009;50.656;7.188;2023-08-07T05:09:02;6.87;;;4.30;;
9940;SDS011;5009;50.656;7.188;2023-08-07T05:11:28;7.23;;;4.60;;
9940;SDS011;5009;50.656;7.188;2023-08-07T05:13:53;7.67;;;4.50;;
9940;SDS011;5009;50.656;7.188;2023-08-07T05:16:19;7.03;;;4.63;;
9940;SDS011;5009;50.656;7.188;2023-08-07T05:18:45;8.83;;;4.70;;
9940;SDS011;5009;50.656;7.188;2023-08-07T05:21:10;7.67;;;4.80;;
9940;SDS011;5009;50.656;7.188;2023-08-07T05:23:36;10.47;;;4.60;;
9940;SDS011;5009;50.656;7.188;2023-08-07T05:26:02;8.13;;;4.67;;
9940;SDS011;5009;50.656;7.188;2023-08-07T05:28:27;9.37;;;4.57;;
9940;SDS011;5009;50.656;7.188;2023-08-07T05:30:53;8.33;;;4.33;;
9940;SDS011;5009;50.656;7.188;2023-08-07T05:33:18;8.17;;;4.63;;
9940;SDS011;5009;50.656;7.188;2023-08-07T05:35:44;6.87;;;4.33;;
9940;SDS011;5009;50.656;7.188;2023-08-07T05:38:09;8.00;;;4.27;;
9940;SDS011;5009;50.656;7.188;2023-08-07T05:40:35;7.07;;;4.43;;
9940;SDS011;5009;50.656;7.188;2023-08-07T05:43:01;10.07;;;4.50;;
9940;SDS011;5009;50.656;7.188;2023-08-07T05:45:27;6.73;;;4.13;;
9940;SDS011;5009;50.656;7.188;2023-08-07T05:47:53;5.80;;;3.87;;
9940;SDS011;5009;50.656;7.188;2023-08-07T05:50:18;6.57;;;4.00;;
9940;SDS011;5009;50.656;7.188;2023-08-07T05:52:44;7.83;;;3.80;;
9940;SDS011;5009;50.656;7.188;2023-08-07T05:55:09;6.53;;;3.67;;
9940;SDS011;5009;50.656;7.188;2023-08-07T05:57:35;8.33;;;3.67;;
9940;SDS011;5009;50.656;7.188;2023-08-07T06:00:01;6.47;;;3.57;;
9940;SDS011;5009;50.656;7.188;2023-08-07T06:02:26;9.43;;;4.43;;
9940;SDS011;5009;50.656;7.188;2023-08-07T06:04:52;8.03;;;3.40;;
9940;SDS011;5009;50.656;7.188;2023-08-07T06:07:18;6.47;;;3.97;;
9940;SDS011;5009;50.656;7.188;2023-08-07T06:09:43;8.47;;;3.23;;
9940;SDS011;5009;50.656;7.188;2023-08-07T06:12:09;7.63;;;3.93;;
9940;SDS011;5009;50.656;7.188;2023-08-07T06:14:34;6.70;;;3.50;;
9940;SDS011;5009;50.656;7.188;2023-08-07T06:17:00;6.87;;;4.00;;
9940;SDS011;5009;50.656;7.188;2023-08-07T06:19:26;9.00;;;3.93;;
9940;SDS011;5009;50.656;7.188;2023-08-07T06:21:52;6.23;;;4.00;;
9940;SDS011;5009;50.656;7.188;2023-08-07T06:24:19;5.87;;;3.67;;
9940;SDS011;5009;50.656;7.188;2023-08-07T06:26:44;5.20;;;3.53;;
9940;SDS011;5009;50.656;7.188;2023-08-07T06:29:10;5.73;;;3.50;;
9940;SDS011;5009;50.656;7.188;2023-08-07T06:31:36;7.37;;;3.57;;
9940;SDS011;5009;50.656;7.188;2023-08-07T06:34:01;7.43;;;3.50;;
9940;SDS011;5009;50.656;7.188;2023-08-07T06:36:27;5.30;;;3.17;;
9940;SDS011;5009;50.656;7.188;2023-08-07T06:38:52;5.47;;;3.47;;
9940;SDS011;5009;50.656;7.188;2023-08-07T06:41:18;8.23;;;3.40;;
9940;SDS011;5009;50.656;7.188;2023-08-07T06:43:43;4.87;;;3.27;;
9940;SDS011;5009;50.656;7.188;2023-08-07T06:46:09;7.67;;;3.70;;
9940;SDS011;5009;50.656;7.188;2023-08-07T06:48:36;7.03;;;3.50;;
9940;SDS011;5009;50.656;7.188;2023-08-07T06:51:02;7.73;;;3.93;;
9940;SDS011;5009;50.656;7.188;2023-08-07T06:53:27;6.10;;;3.83;;
9940;SDS011;5009;50.656;7.188;2023-08-07T06:55:53;6.23;;;3.97;;
9940;SDS011;5009;50.656;7.188;2023-08-07T06:58:18;8.40;;;3.80;;
9940;SDS011;5009;50.656;7.188;2023-08-07T07:00:44;8.37;;;3.93;;
9940;SDS011;5009;50.656;7.188;2023-08-07T07:03:10;7.87;;;3.70;;
9940;SDS011;5009;50.656;7.188;2023-08-07T07:05:37;8.10;;;4.10;;
9940;SDS011;5009;50.656;7.188;2023-08-07T07:08:02;6.80;;;4.13;;
9940;SDS011;5009;50.656;7.188;2023-08-07T07:10:28;7.47;;;3.80;;
9940;SDS011;5009;50.656;7.188;2023-08-07T07:12:54;7.03;;;4.00;;
9940;SDS011;5009;50.656;7.188;2023-08-07T07:15:20;5.40;;;3.70;;
9940;SDS011;5009;50.656;7.188;2023-08-07T07:17:45;7.43;;;3.53;;
9940;SDS011;5009;50.656;7.188;2023-08-07T07:20:11;7.60;;;3.83;;
9940;SDS011;5009;50.656;7.188;2023-08-07T07:22:36;5.63;;;3.33;;
9940;SDS011;5009;50.656;7.188;2023-08-07T07:25:03;7.63;;;3.37;;
9940;SDS011;5009;50.656;7.188;2023-08-07T07:27:29;7.83;;;3.50;;
9940;SDS011;5009;50.656;7.188;2023-08-07T07:29:54;5.30;;;3.40;;
9940;SDS011;5009;50.656;7.188;2023-08-07T07:32:20;4.60;;;3.20;;
9940;SDS011;5009;50.656;7.188;2023-08-07T07:34:45;6.40;;;3.17;;
9940;SDS011;5009;50.656;7.188;2023-08-07T07:37:11;5.20;;;3.00;;
9940;SDS011;5009;50.656;7.188;2023-08-07T07:39:39;3.43;;;2.77;;
9940;SDS011;5009;50.656;7.188;2023-08-07T07:42:04;4.37;;;2.90;;
9940;SDS011;5009;50.656;7.188;2023-08-07T07:44:30;8.53;;;3.20;;
9940;SDS011;5009;50.656;7.188;2023-08-07T07:46:56;9.53;;;2.93;;
9940;SDS011;5009;50.656;7.188;2023-08-07T07:49:22;6.97;;;3.43;;
9940;SDS011;5009;50.656;7.188;2023-08-07T07:51:47;5.87;;;3.03;;
9940;SDS011;5009;50.656;7.188;2023-08-07T07:54:14;4.47;;;2.97;;
9940;SDS011;5009;50.656;7.188;2023-08-07T07:56:40;5.90;;;3.03;;
9940;SDS011;5009;50.656;7.188;2023-08-07T07:59:05;7.23;;;3.17;;
9940;SDS011;5009;50.656;7.188;2023-08-07T08:01:31;7.00;;;3.43;;
9940;SDS011;5009;50.656;7.188;2023-08-07T08:03:56;4.87;;;2.97;;
9940;SDS011;5009;50.656;7.188;2023-08-07T08:06:22;7.60;;;3.27;;
9940;SDS011;5009;50.656;7.188;2023-08-07T08:08:47;5.47;;;3.03;;
9940;SDS011;5009;50.656;7.188;2023-08-07T08:11:13;5.67;;;3.17;;
9940;SDS011;5009;50.656;7.188;2023-08-07T08:13:39;8.63;;;3.70;;
9940;SDS011;5009;50.656;7.188;2023-08-07T08:16:06;5.77;;;3.67;;
9940;SDS011;5009;50.656;7.188;2023-08-07T08:18:32;7.57;;;3.47;;
9940;SDS011;5009;50.656;7.188;2023-08-07T08:20:57;10.10;;;3.60;;
9940;SDS011;5009;50.656;7.188;2023-08-07T08:23:23;7.73;;;4.03;;
9940;SDS011;5009;50.656;7.188;2023-08-07T08:25:48;6.07;;;3.73;;
9940;SDS011;5009;50.656;7.188;2023-08-07T08:28:14;7.27;;;3.50;;
9940;SDS011;5009;50.656;7.188;2023-08-07T08:30:40;5.57;;;3.37;;
9940;SDS011;5009;50.656;7.188;2023-08-07T08:33:06;7.60;;;3.80;;
9940;SDS011;5009;50.656;7.188;2023-08-07T08:35:34;7.97;;;4.03;;
9940;SDS011;5009;50.656;7.188;2023-08-07T08:38:00;5.93;;;3.60;;
9940;SDS011;5009;50.656;7.188;2023-08-07T08:40:26;9.73;;;3.87;;
9940;SDS011;5009;50.656;7.188;2023-08-07T08:42:52;8.67;;;4.03;;
9940;SDS011;5009;50.656;7.188;2023-08-07T08:45:22;6.50;;;3.33;;
9940;SDS011;5009;50.656;7.188;2023-08-07T08:47:50;7.57;;;3.60;;
9940;SDS011;5009;50.656;7.188;2023-08-07T08:50:18;6.93;;;3.87;;
9940;SDS011;5009;50.656;7.188;2023-08-07T08:52:46;4.97;;;3.43;;
9940;SDS011;5009;50.656;7.188;2023-08-07T08:55:12;6.03;;;3.80;;
9940;SDS011;5009;50.656;7.188;2023-08-07T08:57:39;8.47;;;4.10;;
9940;SDS011;5009;50.656;7.188;2023-08-07T09:00:06;10.20;;;3.90;;
9940;SDS011;5009;50.656;7.188;2023-08-07T09:02:43;9.40;;;3.97;;
9940;SDS011;5009;50.656;7.188;2023-08-07T09:05:09;10.43;;;4.40;;
9940;SDS011;5009;50.656;7.188;2023-08-07T09:07:35;7.50;;;3.90;;
9940;SDS011;5009;50.656;7.188;2023-08-07T09:10:02;7.30;;;3.77;;
9940;SDS011;5009;50.656;7.188;2023-08-07T09:12:29;6.20;;;3.63;;
9940;SDS011;5009;50.656;7.188;2023-08-07T09:14:57;6.73;;;3.20;;
9940;SDS011;5009;50.656;7.188;2023-08-07T09:17:29;8.40;;;3.70;;
9940;SDS011;5009;50.656;7.188;2023-08-07T09:19:58;10.13;;;4.03;;
9940;SDS011;5009;50.656;7.188;2023-08-07T09:22:24;6.63;;;3.77;;
9940;SDS011;5009;50.656;7.188;2023-08-07T09:24:49;6.83;;;3.50;;
9940;SDS011;5009;50.656;7.188;2023-08-07T09:27:15;6.03;;;3.50;;
9940;SDS011;5009;50.656;7.188;2023-08-07T09:29:41;9.10;;;4.10;;
9940;SDS011;5009;50.656;7.188;2023-08-07T09:32:14;7.00;;;3.87;;
9940;SDS011;5009;50.656;7.188;2023-08-07T09:34:40;5.97;;;3.27;;
9940;SDS011;5009;50.656;7.188;2023-08-07T09:37:07;5.90;;;3.57;;
9940;SDS011;5009;50.656;7.188;2023-08-07T09:39:36;7.20;;;3.47;;
9940;SDS011;5009;50.656;7.188;2023-08-07T09:42:10;6.50;;;3.63;;
9940;SDS011;5009;50.656;7.188;2023-08-07T09:44:42;5.67;;;3.40;;
9940;SDS011;5009;50.656;7.188;2023-08-07T09:47:13;7.57;;;3.47;;
9940;SDS011;5009;50.656;7.188;2023-08-07T09:49:40;7.13;;;3.50;;
9940;SDS011;5009;50.656;7.188;2023-08-07T09:52:06;4.90;;;3.27;;
9940;SDS011;5009;50.656;7.188;2023-08-07T09:54:34;7.33;;;3.80;;
9940;SDS011;5009;50.656;7.188;2023-08-07T09:57:03;6.23;;;3.70;;
9940;SDS011;5009;50.656;7.188;2023-08-07T09:59:31;7.43;;;3.58;;
9940;SDS011;5009;50.656;7.188;2023-08-07T10:01:57;5.50;;;3.83;;
9940;SDS011;5009;50.656;7.188;2023-08-07T10:04:24;8.77;;;3.30;;
9940;SDS011;5009;50.656;7.188;2023-08-07T10:06:51;8.95;;;3.28;;
9940;SDS011;5009;50.656;7.188;2023-08-07T10:09:17;6.80;;;3.43;;
9940;SDS011;5009;50.656;7.188;2023-08-07T10:11:43;4.90;;;3.50;;
9940;SDS011;5009;50.656;7.188;2023-08-07T10:14:09;6.50;;;3.20;;
9940;SDS011;5009;50.656;7.188;2023-08-07T10:16:35;5.07;;;3.40;;
9940;SDS011;5009;50.656;7.188;2023-08-07T10:19:08;7.23;;;3.80;;
9940;SDS011;5009;50.656;7.188;2023-08-07T10:21:38;6.07;;;3.57;;
9940;SDS011;5009;50.656;7.188;2023-08-07T10:24:05;5.97;;;3.63;;
9940;SDS011;5009;50.656;7.188;2023-08-07T10:26:32;5.57;;;3.83;;
9940;SDS011;5009;50.656;7.188;2023-08-07T10:29:00;6.85;;;3.38;;
9940;SDS011;5009;50.656;7.188;2023-08-07T10:31:32;5.03;;;3.22;;
9940;SDS011;5009;50.656;7.188;2023-08-07T10:33:59;5.88;;;3.58;;
9940;SDS011;5009;50.656;7.188;2023-08-07T10:36:32;7.40;;;3.00;;
9940;SDS011;5009;50.656;7.188;2023-08-07T10:39:08;10.02;;;4.10;;
9940;SDS011;5009;50.656;7.188;2023-08-07T10:41:44;5.57;;;3.20;;
9940;SDS011;5009;50.656;7.188;2023-08-07T10:46:47;6.85;;;3.60;;
9940;SDS011;5009;50.656;7.188;2023-08-07T10:49:36;4.82;;;3.47;;
9940;SDS011;5009;50.656;7.188;2023-08-07T10:52:09;6.40;;;3.25;;
9940;SDS011;5009;50.656;7.188;2023-08-07T10:54:46;4.95;;;2.83;;
9940;SDS011;5009;50.656;7.188;2023-08-07T10:57:15;3.72;;;2.85;;
9940;SDS011;5009;50.656;7.188;2023-08-07T10:59:49;4.28;;;3.38;;
9940;SDS011;5009;50.656;7.188;2023-08-07T11:02:24;4.35;;;3.42;;
9940;SDS011;5009;50.656;7.188;2023-08-07T11:04:51;5.75;;;2.95;;
9940;SDS011;5009;50.656;7.188;2023-08-07T11:07:27;6.15;;;3.05;;
9940;SDS011;5009;50.656;7.188;2023-08-07T11:09:54;6.07;;;3.55;;
9940;SDS011;5009;50.656;7.188;2023-08-07T11:12:24;4.72;;;3.35;;
9940;SDS011;5009;50.656;7.188;2023-08-07T11:14:50;7.30;;;3.33;;
9940;SDS011;5009;50.656;7.188;2023-08-07T11:17:17;4.20;;;3.28;;
9940;SDS011;5009;50.656;7.188;2023-08-07T11:19:43;5.65;;;3.70;;
9940;SDS011;5009;50.656;7.188;2023-08-07T11:22:11;5.63;;;3.65;;
9940;SDS011;5009;50.656;7.188;2023-08-07T11:24:37;4.25;;;3.10;;
9940;SDS011;5009;50.656;7.188;2023-08-07T11:27:03;6.20;;;3.05;;
9940;SDS011;5009;50.656;7.188;2023-08-07T11:29:28;4.82;;;3.20;;
9940;SDS011;5009;50.656;7.188;2023-08-07T11:31:55;5.18;;;3.40;;
9940;SDS011;5009;50.656;7.188;2023-08-07T11:34:21;9.30;;;3.70;;
9940;SDS011;5009;50.656;7.188;2023-08-07T11:36:47;3.58;;;3.10;;
9940;SDS011;5009;50.656;7.188;2023-08-07T11:39:13;7.00;;;3.35;;
9940;SDS011;5009;50.656;7.188;2023-08-07T11:41:39;4.43;;;2.75;;
9940;SDS011;5009;50.656;7.188;2023-08-07T11:44:07;6.07;;;3.22;;
9940;SDS011;5009;50.656;7.188;2023-08-07T11:46:33;7.03;;;3.03;;
9940;SDS011;5009;50.656;7.188;2023-08-07T11:48:59;4.07;;;2.70;;
9940;SDS011;5009;50.656;7.188;2023-08-07T11:51:24;6.45;;;2.90;;
9940;SDS011;5009;50.656;7.188;2023-08-07T11:53:50;3.40;;;2.72;;
9940;SDS011;5009;50.656;7.188;2023-08-07T11:56:21;4.13;;;3.08;;
9940;SDS011;5009;50.656;7.188;2023-08-07T11:58:48;6.82;;;2.97;;
9940;SDS011;5009;50.656;7.188;2023-08-07T12:01:15;6.18;;;3.33;;
9940;SDS011;5009;50.656;7.188;2023-08-07T12:03:50;4.32;;;3.03;;
9940;SDS011;5009;50.656;7.188;2023-08-07T12:06:19;5.28;;;3.53;;
9940;SDS011;5009;50.656;7.188;2023-08-07T12:08:47;4.57;;;3.22;;
9940;SDS011;5009;50.656;7.188;2023-08-07T12:11:15;4.68;;;3.35;;
9940;SDS011;5009;50.656;7.188;2023-08-07T12:13:41;6.03;;;2.92;;
9940;SDS011;5009;50.656;7.188;2023-08-07T12:16:09;4.88;;;2.97;;
9940;SDS011;5009;50.656;7.188;2023-08-07T12:18:35;3.83;;;2.60;;
9940;SDS011;5009;50.656;7.188;2023-08-07T12:21:04;5.30;;;3.28;;
9940;SDS011;5009;50.656;7.188;2023-08-07T12:23:32;4.13;;;3.03;;
9940;SDS011;5009;50.656;7.188;2023-08-07T12:25:59;5.35;;;3.15;;
9940;SDS011;5009;50.656;7.188;2023-08-07T12:28:26;5.18;;;3.20;;
9940;SDS011;5009;50.656;7.188;2023-08-07T12:30:51;6.22;;;2.90;;
9940;SDS011;5009;50.656;7.188;2023-08-07T12:33:17;6.32;;;3.28;;
9940;SDS011;5009;50.656;7.188;2023-08-07T12:35:43;7.50;;;3.05;;
9940;SDS011;5009;50.656;7.188;2023-08-07T12:38:09;4.80;;;3.10;;
9940;SDS011;5009;50.656;7.188;2023-08-07T12:40:36;7.20;;;2.90;;
9940;SDS011;5009;50.656;7.188;2023-08-07T12:43:02;7.10;;;3.15;;
9940;SDS011;5009;50.656;7.188;2023-08-07T12:45:29;9.80;;;3.42;;
9940;SDS011;5009;50.656;7.188;2023-08-07T12:47:54;4.88;;;3.25;;
9940;SDS011;5009;50.656;7.188;2023-08-07T12:50:20;4.63;;;2.80;;
9940;SDS011;5009;50.656;7.188;2023-08-07T12:52:45;4.30;;;3.15;;
9940;SDS011;5009;50.656;7.188;2023-08-07T12:55:11;10.73;;;3.03;;
9940;SDS011;5009;50.656;7.188;2023-08-07T12:57:37;6.25;;;3.80;;
9940;SDS011;5009;50.656;7.188;2023-08-07T13:00:07;5.78;;;2.90;;
9940;SDS011;5009;50.656;7.188;2023-08-07T13:02:37;3.20;;;2.60;;
9940;SDS011;5009;50.656;7.188;2023-08-07T13:05:04;4.25;;;3.00;;
9940;SDS011;5009;50.656;7.188;2023-08-07T13:07:30;4.43;;;2.72;;
9940;SDS011;5009;50.656;7.188;2023-08-07T13:09:55;6.13;;;3.47;;
9940;SDS011;5009;50.656;7.188;2023-08-07T13:12:22;4.57;;;3.10;;
9940;SDS011;5009;50.656;7.188;2023-08-07T13:14:47;4.47;;;3.20;;
9940;SDS011;5009;50.656;7.188;2023-08-07T13:17:13;4.28;;;3.20;;
9940;SDS011;5009;50.656;7.188;2023-08-07T13:19:38;4.65;;;3.08;;
9940;SDS011;5009;50.656;7.188;2023-08-07T13:22:04;5.75;;;3.65;;
9940;SDS011;5009;50.656;7.188;2023-08-07T13:24:30;3.30;;;3.00;;
9940;SDS011;5009;50.656;7.188;2023-08-07T13:26:55;6.00;;;3.17;;
9940;SDS011;5009;50.656;7.188;2023-08-07T13:29:21;5.45;;;3.33;;
9940;SDS011;5009;50.656;7.188;2023-08-07T13:31:46;5.25;;;3.40;;
9940;SDS011;5009;50.656;7.188;2023-08-07T13:34:13;5.10;;;3.28;;
9940;SDS011;5009;50.656;7.188;2023-08-07T13:36:39;3.40;;;3.10;;
9940;SDS011;5009;50.656;7.188;2023-08-07T13:39:05;4.40;;;3.30;;
9940;SDS011;5009;50.656;7.188;2023-08-07T13:41:31;7.18;;;3.60;;
9940;SDS011;5009;50.656;7.188;2023-08-07T13:43:57;5.10;;;3.13;;
9940;SDS011;5009;50.656;7.188;2023-08-07T13:46:23;3.88;;;3.00;;
9940;SDS011;5009;50.656;7.188;2023-08-07T13:48:49;3.10;;;2.90;;
9940;SDS011;5009;50.656;7.188;2023-08-07T13:51:14;4.47;;;3.05;;
9940;SDS011;5009;50.656;7.188;2023-08-07T13:53:41;4.70;;;2.97;;
9940;SDS011;5009;50.656;7.188;2023-08-07T13:56:07;4.63;;;3.33;;
9940;SDS011;5009;50.656;7.188;2023-08-07T13:58:36;5.05;;;3.55;;
9940;SDS011;5009;50.656;7.188;2023-08-07T14:01:01;6.07;;;4.55;;
9940;SDS011;5009;50.656;7.188;2023-08-07T14:03:27;8.10;;;5.28;;
9940;SDS011;5009;50.656;7.188;2023-08-07T14:05:52;7.95;;;5.38;;
9940;SDS011;5009;50.656;7.188;2023-08-07T14:08:18;8.65;;;4.97;;
9940;SDS011;5009;50.656;7.188;2023-08-07T14:10:44;9.95;;;6.95;;
9940;SDS011;5009;50.656;7.188;2023-08-07T14:13:09;8.90;;;6.35;;
9940;SDS011;5009;50.656;7.188;2023-08-07T14:15:36;12.45;;;6.10;;
9940;SDS011;5009;50.656;7.188;2023-08-07T14:18:02;7.03;;;5.97;;
9940;SDS011;5009;50.656;7.188;2023-08-07T14:20:27;8.48;;;6.20;;
9940;SDS011;5009;50.656;7.188;2023-08-07T14:22:53;6.80;;;5.30;;
9940;SDS011;5009;50.656;7.188;2023-08-07T14:25:19;6.60;;;4.80;;
9940;SDS011;5009;50.656;7.188;2023-08-07T14:27:47;4.95;;;4.10;;
9940;SDS011;5009;50.656;7.188;2023-08-07T14:30:12;6.28;;;3.55;;
9940;SDS011;5009;50.656;7.188;2023-08-07T14:32:38;3.72;;;3.28;;
9940;SDS011;5009;50.656;7.188;2023-08-07T14:35:04;4.28;;;2.75;;
9940;SDS011;5009;50.656;7.188;2023-08-07T14:37:30;4.93;;;3.10;;
9940;SDS011;5009;50.656;7.188;2023-08-07T14:39:56;5.97;;;3.28;;
9940;SDS011;5009;50.656;7.188;2023-08-07T14:42:21;5.55;;;3.40;;
9940;SDS011;5009;50.656;7.188;2023-08-07T14:44:47;3.75;;;3.20;;
9940;SDS011;5009;50.656;7.188;2023-08-07T14:47:13;4.30;;;2.92;;
9940;SDS011;5009;50.656;7.188;2023-08-07T14:49:39;5.88;;;3.13;;
9940;SDS011;5009;50.656;7.188;2023-08-07T14:52:04;3.33;;;2.70;;
9940;SDS011;5009;50.656;7.188;2023-08-07T14:54:31;6.20;;;2.83;;
9940;SDS011;5009;50.656;7.188;2023-08-07T14:56:56;3.75;;;3.03;;
9940;SDS011;5009;50.656;7.188;2023-08-07T14:59:23;4.50;;;2.70;;
9940;SDS011;5009;50.656;7.188;2023-08-07T15:01:50;3.67;;;2.83;;
9940;SDS011;5009;50.656;7.188;2023-08-07T15:04:16;8.30;;;3.30;;
9940;SDS011;5009;50.656;7.188;2023-08-07T15:06:41;4.32;;;2.88;;
9940;SDS011;5009;50.656;7.188;2023-08-07T15:09:07;6.32;;;2.83;;
9940;SDS011;5009;50.656;7.188;2023-08-07T15:11:34;5.03;;;2.88;;
9940;SDS011;5009;50.656;7.188;2023-08-07T15:14:00;4.15;;;2.90;;
9940;SDS011;5009;50.656;7.188;2023-08-07T15:16:25;3.55;;;2.42;;
9940;SDS011;5009;50.656;7.188;2023-08-07T15:18:51;2.72;;;2.45;;
9940;SDS011;5009;50.656;7.188;2023-08-07T15:21:16;3.60;;;2.70;;
9940;SDS011;5009;50.656;7.188;2023-08-07T15:23:43;2.85;;;2.65;;
9940;SDS011;5009;50.656;7.188;2023-08-07T15:26:08;2.47;;;2.28;;
9940;SDS011;5009;50.656;7.188;2023-08-07T15:28:34;2.90;;;2.60;;
9940;SDS011;5009;50.656;7.188;2023-08-07T15:31:00;3.25;;;2.67;;
9940;SDS011;5009;50.656;7.188;2023-08-07T15:33:25;3.67;;;2.53;;
9940;SDS011;5009;50.656;7.188;2023-08-07T15:35:53;4.60;;;2.95;;
9940;SDS011;5009;50.656;7.188;2023-08-07T15:38:19;3.78;;;2.78;;
9940;SDS011;5009;50.656;7.188;2023-08-07T15:40:45;2.42;;;2.28;;
9940;SDS011;5009;50.656;7.188;2023-08-07T15:43:10;5.30;;;2.47;;
9940;SDS011;5009;50.656;7.188;2023-08-07T15:45:36;2.90;;;2.70;;
9940;SDS011;5009;50.656;7.188;2023-08-07T15:48:02;5.03;;;2.83;;
9940;SDS011;5009;50.656;7.188;2023-08-07T15:50:28;2.25;;;2.15;;
9940;SDS011;5009;50.656;7.188;2023-08-07T15:52:55;5.05;;;2.72;;
9940;SDS011;5009;50.656;7.188;2023-08-07T15:55:22;2.30;;;2.10;;
9940;SDS011;5009;50.656;7.188;2023-08-07T15:57:47;2.17;;;1.98;;
9940;SDS011;5009;50.656;7.188;2023-08-07T16:00:13;2.47;;;2.28;;
9940;SDS011;5009;50.656;7.188;2023-08-07T16:02:39;2.53;;;2.33;;
9940;SDS011;5009;50.656;7.188;2023-08-07T16:05:05;4.18;;;2.08;;
9940;SDS011;5009;50.656;7.188;2023-08-07T16:07:31;2.13;;;2.03;;
9940;SDS011;5009;50.656;7.188;2023-08-07T16:09:57;2.05;;;1.95;;
9940;SDS011;5009;50.656;7.188;2023-08-07T16:12:22;2.20;;;2.10;;
9940;SDS011;5009;50.656;7.188;2023-08-07T16:14:48;4.55;;;2.55;;
9940;SDS011;5009;50.656;7.188;2023-08-07T16:17:14;2.15;;;2.05;;
9940;SDS011;5009;50.656;7.188;2023-08-07T16:19:40;2.08;;;1.80;;
9940;SDS011;5009;50.656;7.188;2023-08-07T16:22:06;4.40;;;2.20;;
9940;SDS011;5009;50.656;7.188;2023-08-07T16:24:32;2.08;;;1.77;;
9940;SDS011;5009;50.656;7.188;2023-08-07T16:26:59;2.50;;;2.28;;
9940;SDS011;5009;50.656;7.188;2023-08-07T16:29:24;2.17;;;1.90;;
9940;SDS011;5009;50.656;7.188;2023-08-07T16:31:50;1.92;;;1.83;;
9940;SDS011;5009;50.656;7.188;2023-08-07T16:34:16;3.00;;;2.20;;
9940;SDS011;5009;50.656;7.188;2023-08-07T16:36:42;2.08;;;1.98;;
9940;SDS011;5009;50.656;7.188;2023-08-07T16:39:08;2.88;;;2.00;;
9940;SDS011;5009;50.656;7.188;2023-08-07T16:41:33;3.85;;;2.40;;
9940;SDS011;5009;50.656;7.188;2023-08-07T16:43:59;3.70;;;3.10;;
9940;SDS011;5009;50.656;7.188;2023-08-07T16:46:25;5.72;;;5.07;;
9940;SDS011;5009;50.656;7.188;2023-08-07T16:48:50;4.97;;;3.78;;
9940;SDS011;5009;50.656;7.188;2023-08-07T16:51:16;4.00;;;2.78;;
9940;SDS011;5009;50.656;7.188;2023-08-07T16:53:43;3.95;;;1.85;;
9940;SDS011;5009;50.656;7.188;2023-08-07T16:56:10;3.00;;;2.30;;
9940;SDS011;5009;50.656;7.188;2023-08-07T16:58:36;2.00;;;1.80;;
9940;SDS011;5009;50.656;7.188;2023-08-07T17:01:04;2.42;;;1.88;;
9940;SDS011;5009;50.656;7.188;2023-08-07T17:03:30;2.30;;;2.10;;
9940;SDS011;5009;50.656;7.188;2023-08-07T17:05:56;1.77;;;1.70;;
9940;SDS011;5009;50.656;7.188;2023-08-07T17:08:21;2.58;;;2.30;;
9940;SDS011;5009;50.656;7.188;2023-08-07T17:10:47;3.08;;;2.10;;
9940;SDS011;5009;50.656;7.188;2023-08-07T17:13:13;3.10;;;2.38;;
9940;SDS011;5009;50.656;7.188;2023-08-07T17:15:39;2.63;;;2.13;;
9940;SDS011;5009;50.656;7.188;2023-08-07T17:18:05;2.40;;;2.20;;
9940;SDS011;5009;50.656;7.188;2023-08-07T17:20:31;2.40;;;2.20;;
9940;SDS011;5009;50.656;7.188;2023-08-07T17:22:57;1.75;;;1.65;;
9940;SDS011;5009;50.656;7.188;2023-08-07T17:25:26;3.22;;;2.15;;
9940;SDS011;5009;50.656;7.188;2023-08-07T17:27:52;1.85;;;1.75;;
9940;SDS011;5009;50.656;7.188;2023-08-07T17:30:18;2.58;;;2.10;;
9940;SDS011;5009;50.656;7.188;2023-08-07T17:32:48;1.92;;;1.83;;
9940;SDS011;5009;50.656;7.188;2023-08-07T17:35:14;2.35;;;2.20;;
9940;SDS011;5009;50.656;7.188;2023-08-07T17:37:43;2.35;;;2.15;;
9940;SDS011;5009;50.656;7.188;2023-08-07T17:40:09;1.95;;;1.83;;
9940;SDS011;5009;50.656;7.188;2023-08-07T17:42:36;3.35;;;2.30;;
9940;SDS011;5009;50.656;7.188;2023-08-07T17:45:02;2.47;;;2.28;;
9940;SDS011;5009;50.656;7.188;2023-08-07T17:47:28;2.53;;;2.33;;
9940;SDS011;5009;50.656;7.188;2023-08-07T17:49:54;2.70;;;2.50;;
9940;SDS011;5009;50.656;7.188;2023-08-07T17:52:20;3.10;;;2.50;;
9940;SDS011;5009;50.656;7.188;2023-08-07T17:54:46;2.55;;;2.13;;
9940;SDS011;5009;50.656;7.188;2023-08-07T17:57:15;3.17;;;2.22;;
9940;SDS011;5009;50.656;7.188;2023-08-07T17:59:41;1.98;;;1.70;;
9940;SDS011;5009;50.656;7.188;2023-08-07T18:02:07;2.15;;;2.05;;
9940;SDS011;5009;50.656;7.188;2023-08-07T18:04:33;2.10;;;1.90;;
9940;SDS011;5009;50.656;7.188;2023-08-07T18:06:59;2.17;;;2.00;;
9940;SDS011;5009;50.656;7.188;2023-08-07T18:09:25;2.15;;;1.98;;
9940;SDS011;5009;50.656;7.188;2023-08-07T18:11:51;3.20;;;2.30;;
9940;SDS011;5009;50.656;7.188;2023-08-07T18:14:17;2.75;;;2.42;;
9940;SDS011;5009;50.656;7.188;2023-08-07T18:16:43;2.40;;;2.20;;
9940;SDS011;5009;50.656;7.188;2023-08-07T18:19:10;3.40;;;2.45;;
9940;SDS011;5009;50.656;7.188;2023-08-07T18:21:36;2.75;;;2.40;;
9940;SDS011;5009;50.656;7.188;2023-08-07T18:24:02;3.90;;;2.53;;
9940;SDS011;5009;50.656;7.188;2023-08-07T18:26:28;3.20;;;2.90;;
9940;SDS011;5009;50.656;7.188;2023-08-07T18:28:53;4.82;;;2.85;;
9940;SDS011;5009;50.656;7.188;2023-08-07T18:31:19;4.57;;;3.15;;
9940;SDS011;5009;50.656;7.188;2023-08-07T18:33:46;3.40;;;3.10;;
9940;SDS011;5009;50.656;7.188;2023-08-07T18:36:11;5.72;;;4.47;;
9940;SDS011;5009;50.656;7.188;2023-08-07T18:38:38;4.55;;;4.10;;
9940;SDS011;5009;50.656;7.188;2023-08-07T18:41:03;4.88;;;4.07;;
9940;SDS011;5009;50.656;7.188;2023-08-07T18:43:31;4.75;;;3.60;;
9940;SDS011;5009;50.656;7.188;2023-08-07T18:45:57;5.55;;;3.13;;
9940;SDS011;5009;50.656;7.188;2023-08-07T18:48:22;4.68;;;3.20;;
9940;SDS011;5009;50.656;7.188;2023-08-07T18:50:48;4.47;;;2.88;;
9940;SDS011;5009;50.656;7.188;2023-08-07T18:53:14;3.30;;;2.97;;
9940;SDS011;5009;50.656;7.188;2023-08-07T18:55:39;3.88;;;3.22;;
9940;SDS011;5009;50.656;7.188;2023-08-07T18:58:05;4.25;;;3.80;;